Time;durP1;ratioP1;P1;durP2;ratioP2;P2;SDS_P1;SDS_P2;PMS_P1;PMS_P2;Temp;Humidity;BMP_temperature;BMP_pressure;BME280_temperature;BME280_humidity;BME280_pressure;Samples;Min_cycle;Max_cycle;Signal;HPM_P1;HPM_P2
2023/07/30 00:01:39;;;;;;;18.70;6.63;;;15.50;99.90;;;;;;5008533;28;20092;-69
2023/07/30 00:04:05;;;;;;;24.80;6.93;;;15.50;99.90;;;;;;4991258;28;20046;-69
2023/07/30 00:06:31;;;;;;;19.55;6.72;;;15.50;99.90;;;;;;5008336;28;20707;-69
2023/07/30 00:08:56;;;;;;;19.15;6.38;;;15.50;99.90;;;;;;5008629;28;20046;-69
2023/07/30 00:11:22;;;;;;;18.88;6.60;;;15.50;99.90;;;;;;4995224;28;20484;-69
2023/07/30 00:13:48;;;;;;;20.70;6.00;;;15.50;99.90;;;;;;5008643;28;20045;-70
2023/07/30 00:16:13;;;;;;;21.67;7.22;;;15.50;99.90;;;;;;5008820;28;20107;-69
2023/07/30 00:18:39;;;;;;;19.30;6.47;;;15.50;99.90;;;;;;5008009;28;20454;-70
2023/07/30 00:21:04;;;;;;;22.88;6.45;;;15.40;99.90;;;;;;5008764;28;20042;-68
2023/07/30 00:23:30;;;;;;;23.85;6.25;;;15.50;99.90;;;;;;5008533;28;20045;-69
2023/07/30 00:25:56;;;;;;;24.98;5.95;;;15.50;99.90;;;;;;5001223;28;20049;-69
2023/07/30 00:28:21;;;;;;;19.98;5.78;;;15.50;99.90;;;;;;5009093;28;20053;-69
2023/07/30 00:30:47;;;;;;;19.38;6.38;;;15.50;99.90;;;;;;5007513;28;20042;-69
2023/07/30 00:33:12;;;;;;;24.38;6.47;;;15.40;99.90;;;;;;5008708;28;20049;-69
2023/07/30 00:35:38;;;;;;;18.60;5.82;;;15.40;99.90;;;;;;5008251;28;20138;-69
2023/07/30 00:38:04;;;;;;;17.02;5.93;;;15.40;99.90;;;;;;5008709;28;20141;-69
2023/07/30 00:40:29;;;;;;;19.73;5.90;;;15.40;99.90;;;;;;5008032;28;20096;-68
2023/07/30 00:42:55;;;;;;;23.83;6.45;;;15.40;99.90;;;;;;5008505;28;20133;-69
2023/07/30 00:45:21;;;;;;;26.65;7.38;;;15.30;99.90;;;;;;5007887;28;20125;-68
2023/07/30 00:47:47;;;;;;;23.40;7.35;;;15.40;99.90;;;;;;5006924;28;20403;-69
2023/07/30 00:50:15;;;;;;;17.23;6.32;;;15.40;99.90;;;;;;5008487;28;20630;-69
2023/07/30 00:52:42;;;;;;;19.02;6.28;;;15.20;99.90;;;;;;5008123;28;20473;-68
2023/07/30 00:55:08;;;;;;;18.08;6.10;;;15.20;99.90;;;;;;5008256;28;20116;-69
2023/07/30 00:57:36;;;;;;;18.90;6.32;;;15.20;99.90;;;;;;5008002;28;20112;-68
2023/07/30 01:00:04;;;;;;;18.60;6.40;;;15.20;99.90;;;;;;5008318;28;20149;-68
2023/07/30 01:02:31;;;;;;;23.80;6.43;;;15.20;99.90;;;;;;4996616;28;20116;-69
2023/07/30 01:04:59;;;;;;;19.35;5.82;;;15.20;99.90;;;;;;5011715;28;20169;-69
2023/07/30 01:07:25;;;;;;;17.20;6.25;;;15.20;99.90;;;;;;5012317;28;20041;-69
2023/07/30 01:09:51;;;;;;;22.10;6.15;;;15.30;99.90;;;;;;5011474;28;20042;-69
2023/07/30 01:12:17;;;;;;;15.45;5.53;;;15.30;99.90;;;;;;5011513;28;20037;-69
2023/07/30 01:14:45;;;;;;;16.95;5.68;;;15.20;99.90;;;;;;5011032;28;20505;-69
2023/07/30 01:17:12;;;;;;;17.05;6.05;;;15.20;99.90;;;;;;5011600;28;20038;-69
2023/07/30 01:19:37;;;;;;;16.05;5.32;;;15.30;99.90;;;;;;5011587;28;20046;-68
2023/07/30 01:22:03;;;;;;;18.92;5.65;;;15.30;99.90;;;;;;5011171;28;20527;-69
2023/07/30 01:24:29;;;;;;;21.25;6.10;;;15.20;99.90;;;;;;5011989;28;20052;-69
2023/07/30 01:26:56;;;;;;;18.45;5.43;;;15.30;99.90;;;;;;5010836;28;20437;-69
2023/07/30 01:29:35;;;;;;;16.48;5.45;;;15.30;99.90;;;;;;5011202;28;20045;-68
2023/07/30 01:32:05;;;;;;;17.58;5.75;;;15.30;99.90;;;;;;5003339;28;20046;-69
2023/07/30 01:34:34;;;;;;;23.70;6.35;;;15.30;99.90;;;;;;5011434;28;20042;-69
2023/07/30 01:37:00;;;;;;;17.70;5.70;;;15.40;99.90;;;;;;5011022;28;20440;-69
2023/07/30 01:39:27;;;;;;;21.25;6.07;;;15.40;99.90;;;;;;5011954;28;20727;-69
2023/07/30 01:41:56;;;;;;;20.10;5.47;;;15.40;99.90;;;;;;5010980;28;20046;-69
2023/07/30 01:44:22;;;;;;;26.10;5.82;;;15.50;99.90;;;;;;5011423;28;20046;-69
2023/07/30 01:46:47;;;;;;;27.92;6.57;;;15.50;99.90;;;;;;5010818;28;20046;-69
2023/07/30 01:49:13;;;;;;;24.50;6.20;;;15.50;99.90;;;;;;5010495;28;20382;-69
2023/07/30 01:51:39;;;;;;;30.33;6.45;;;15.50;99.90;;;;;;5010851;28;20121;-69
2023/07/30 01:54:04;;;;;;;24.17;6.43;;;15.50;99.90;;;;;;5010440;28;20050;-69
2023/07/30 01:56:30;;;;;;;24.55;5.47;;;15.60;99.90;;;;;;5010742;28;20061;-69
2023/07/30 01:58:55;;;;;;;22.80;5.70;;;15.60;99.90;;;;;;5010528;28;20499;-69
2023/07/30 02:01:21;;;;;;;20.63;5.53;;;15.60;99.90;;;;;;4998235;28;20416;-68
2023/07/30 02:03:47;;;;;;;21.70;5.38;;;15.60;99.90;;;;;;5009844;28;20056;-69
2023/07/30 02:06:12;;;;;;;30.45;6.07;;;15.60;99.90;;;;;;5009640;28;20042;-69
2023/07/30 02:08:38;;;;;;;27.30;5.65;;;15.60;99.90;;;;;;5010692;28;20049;-69
2023/07/30 02:11:04;;;;;;;21.52;5.50;;;15.70;99.90;;;;;;5010256;28;20041;-69
2023/07/30 02:13:29;;;;;;;24.98;6.63;;;15.60;99.90;;;;;;5015174;28;20120;-68
2023/07/30 02:15:55;;;;;;;28.75;6.10;;;15.60;99.90;;;;;;5010352;28;20396;-69
2023/07/30 02:18:21;;;;;;;26.20;6.40;;;15.70;99.90;;;;;;5009438;28;20473;-69
2023/07/30 02:20:46;;;;;;;25.60;6.20;;;15.70;99.90;;;;;;5010826;28;20053;-69
2023/07/30 02:23:15;;;;;;;24.17;5.65;;;15.60;99.90;;;;;;5009952;28;20109;-70
2023/07/30 02:25:41;;;;;;;29.88;5.68;;;15.60;99.90;;;;;;5003063;28;20772;-69
2023/07/30 02:28:06;;;;;;;19.88;5.68;;;15.60;99.90;;;;;;5009803;28;20045;-69
2023/07/30 02:30:34;;;;;;;23.13;5.75;;;15.70;99.90;;;;;;5010627;28;21353;-69
2023/07/30 02:32:59;;;;;;;26.92;5.80;;;15.60;99.90;;;;;;5002426;28;20097;-69
2023/07/30 02:35:25;;;;;;;28.90;5.95;;;15.60;99.90;;;;;;5011339;28;20038;-69
2023/07/30 02:37:51;;;;;;;27.77;5.30;;;15.50;99.90;;;;;;5016654;28;20041;-69
2023/07/30 02:40:16;;;;;;;23.10;5.70;;;15.50;99.90;;;;;;4998419;28;20433;-69
2023/07/30 02:42:42;;;;;;;18.10;6.03;;;15.60;99.90;;;;;;5009713;28;20053;-69
2023/07/30 02:45:08;;;;;;;20.55;4.80;;;15.60;99.90;;;;;;5009953;28;20045;-69
2023/07/30 02:47:34;;;;;;;30.13;6.60;;;15.50;99.90;;;;;;5009991;28;20068;-69
2023/07/30 02:49:59;;;;;;;21.00;4.53;;;15.50;99.90;;;;;;5010283;28;20045;-69
2023/07/30 02:52:25;;;;;;;30.50;5.60;;;15.50;99.90;;;;;;5009567;28;20046;-67
2023/07/30 02:54:50;;;;;;;28.08;5.63;;;15.50;99.90;;;;;;5009794;28;20549;-69
2023/07/30 02:57:16;;;;;;;31.13;6.25;;;15.50;99.90;;;;;;5009132;28;20064;-69
2023/07/30 02:59:42;;;;;;;20.67;5.22;;;15.50;99.90;;;;;;5009858;28;20060;-69
2023/07/30 03:02:07;;;;;;;25.73;5.35;;;15.50;99.90;;;;;;5009566;28;20046;-69
2023/07/30 03:04:33;;;;;;;17.95;5.15;;;15.40;99.90;;;;;;5008857;28;20056;-69
2023/07/30 03:06:59;;;;;;;22.27;5.43;;;15.40;99.90;;;;;;5011276;28;20037;-69
2023/07/30 03:09:25;;;;;;;29.63;5.90;;;15.40;99.90;;;;;;5015938;28;20048;-69
2023/07/30 03:11:50;;;;;;;21.63;5.40;;;15.40;99.90;;;;;;5011687;28;20045;-69
2023/07/30 03:14:20;;;;;;;20.75;5.75;;;15.40;99.90;;;;;;5008752;28;20049;-69
2023/07/30 03:16:46;;;;;;;20.52;5.28;;;15.40;99.90;;;;;;5009221;28;20064;-69
2023/07/30 03:19:12;;;;;;;19.73;5.32;;;15.40;99.90;;;;;;5005012;28;20697;-69
2023/07/30 03:21:37;;;;;;;20.40;5.07;;;15.40;99.90;;;;;;5009855;28;20088;-69
2023/07/30 03:24:03;;;;;;;26.70;5.57;;;15.40;99.90;;;;;;5009111;28;20046;-68
2023/07/30 03:26:29;;;;;;;16.08;4.43;;;15.40;99.90;;;;;;5009953;28;20048;-69
2023/07/30 03:28:54;;;;;;;24.30;5.30;;;15.40;99.90;;;;;;5009721;28;20034;-69
2023/07/30 03:31:20;;;;;;;28.52;5.75;;;15.30;99.90;;;;;;5008737;28;20076;-69
2023/07/30 03:33:46;;;;;;;26.88;5.68;;;15.40;99.90;;;;;;5009320;28;20053;-69
2023/07/30 03:36:13;;;;;;;20.05;4.88;;;15.30;99.90;;;;;;5008419;28;20049;-69
2023/07/30 03:38:39;;;;;;;26.50;5.97;;;15.30;99.90;;;;;;5011801;28;20037;-69
2023/07/30 03:41:06;;;;;;;25.23;4.95;;;15.30;99.90;;;;;;5010718;28;20050;-70
2023/07/30 03:43:32;;;;;;;21.45;4.60;;;15.30;99.90;;;;;;5010039;28;20492;-69
2023/07/30 03:45:58;;;;;;;23.05;5.75;;;15.30;99.90;;;;;;4993731;28;20124;-70
2023/07/30 03:48:23;;;;;;;25.00;5.53;;;15.30;99.90;;;;;;5009087;28;20137;-69
2023/07/30 03:50:49;;;;;;;24.77;5.43;;;15.20;99.90;;;;;;4998154;28;20044;-69
2023/07/30 03:53:15;;;;;;;22.10;5.35;;;15.30;99.90;;;;;;5008845;28;20419;-70
2023/07/30 03:55:41;;;;;;;20.38;5.28;;;15.20;99.90;;;;;;5014246;28;20061;-70
2023/07/30 03:58:06;;;;;;;20.35;4.90;;;15.30;99.90;;;;;;5009071;28;20054;-70
2023/07/30 04:00:33;;;;;;;18.48;4.90;;;15.30;99.90;;;;;;5008166;28;20058;-69
2023/07/30 04:02:58;;;;;;;26.10;5.97;;;15.20;99.90;;;;;;5008282;28;20054;-69
2023/07/30 04:05:24;;;;;;;23.40;6.00;;;15.30;99.90;;;;;;5008217;28;20053;-68
2023/07/30 04:07:50;;;;;;;25.27;5.47;;;15.20;99.90;;;;;;5008593;28;20046;-69
2023/07/30 04:10:15;;;;;;;21.40;5.22;;;15.30;99.90;;;;;;5008314;28;20404;-69
2023/07/30 04:12:41;;;;;;;20.88;5.00;;;15.30;99.90;;;;;;5007945;28;20049;-69
2023/07/30 04:15:07;;;;;;;24.25;5.65;;;15.30;99.90;;;;;;5008330;28;20046;-69
2023/07/30 04:17:35;;;;;;;17.85;4.72;;;15.20;99.90;;;;;;5008316;28;20042;-69
2023/07/30 04:20:01;;;;;;;21.05;4.93;;;15.20;99.90;;;;;;5008897;28;20042;-69
2023/07/30 04:22:27;;;;;;;14.93;4.47;;;15.20;99.90;;;;;;5008280;28;20045;-69
2023/07/30 04:24:52;;;;;;;21.77;4.75;;;15.30;99.90;;;;;;5007948;28;20042;-69
2023/07/30 04:27:18;;;;;;;27.25;5.32;;;15.20;99.90;;;;;;5008966;28;20045;-69
2023/07/30 04:29:44;;;;;;;27.05;6.40;;;15.20;99.90;;;;;;5007739;28;20041;-69
2023/07/30 04:32:09;;;;;;;24.58;6.25;;;15.20;99.90;;;;;;5008558;28;20053;-70
2023/07/30 04:34:35;;;;;;;24.00;5.13;;;15.30;99.90;;;;;;5008640;28;20131;-69
2023/07/30 04:37:02;;;;;;;22.33;4.75;;;15.30;99.90;;;;;;5011876;28;20125;-70
2023/07/30 04:39:27;;;;;;;29.05;5.47;;;15.30;99.90;;;;;;5012003;28;20118;-70
2023/07/30 04:41:53;;;;;;;25.02;5.25;;;15.30;99.90;;;;;;5012033;28;20133;-69
2023/07/30 04:44:19;;;;;;;19.30;4.95;;;15.40;99.90;;;;;;5012358;28;20398;-70
2023/07/30 04:46:44;;;;;;;25.25;5.88;;;15.40;99.90;;;;;;5012599;28;20165;-69
2023/07/30 04:49:10;;;;;;;27.85;5.40;;;15.40;99.90;;;;;;5011870;28;20052;-69
2023/07/30 04:51:36;;;;;;;26.48;5.40;;;15.40;99.90;;;;;;5012002;28;20495;-70
2023/07/30 04:54:01;;;;;;;21.63;5.07;;;15.50;99.90;;;;;;5012071;28;20460;-68
2023/07/30 04:56:27;;;;;;;21.20;4.50;;;15.60;99.90;;;;;;5011535;28;20062;-70
2023/07/30 04:58:54;;;;;;;21.95;5.00;;;15.60;99.90;;;;;;5011998;28;20141;-70
2023/07/30 05:01:19;;;;;;;21.08;4.80;;;15.60;99.90;;;;;;5011899;28;20143;-69
2023/07/30 05:03:45;;;;;;;20.15;4.15;;;15.70;99.90;;;;;;5012086;28;20508;-69
2023/07/30 05:06:11;;;;;;;19.58;4.20;;;15.70;99.90;;;;;;5012070;28;20465;-69
2023/07/30 05:08:36;;;;;;;18.17;4.10;;;15.80;99.90;;;;;;5010746;28;20081;-69
2023/07/30 05:11:02;;;;;;;23.75;4.22;;;15.80;99.90;;;;;;5011428;28;20045;-69
2023/07/30 05:13:27;;;;;;;19.88;4.82;;;15.80;99.90;;;;;;5010805;28;20401;-69
2023/07/30 05:15:53;;;;;;;18.17;4.15;;;15.80;99.90;;;;;;5011846;28;20057;-70
2023/07/30 05:18:19;;;;;;;23.17;3.97;;;15.90;99.90;;;;;;5011384;28;20041;-69
2023/07/30 05:20:46;;;;;;;17.27;4.05;;;15.90;99.90;;;;;;5010441;28;20120;-69
2023/07/30 05:23:12;;;;;;;19.73;4.57;;;15.90;99.90;;;;;;5010988;28;20034;-69
2023/07/30 05:25:37;;;;;;;18.20;4.40;;;15.90;99.90;;;;;;5012629;28;20046;-69
2023/07/30 05:28:03;;;;;;;23.25;5.00;;;16.00;99.90;;;;;;5011833;28;20088;-69
2023/07/30 05:30:29;;;;;;;17.77;4.45;;;16.00;99.90;;;;;;5011363;28;20046;-69
2023/07/30 05:32:55;;;;;;;22.83;5.13;;;16.10;99.90;;;;;;5010752;28;20121;-70
2023/07/30 05:35:21;;;;;;;21.05;4.60;;;16.10;99.90;;;;;;5013974;28;20050;-69
2023/07/30 05:37:47;;;;;;;18.55;3.83;;;16.20;99.90;;;;;;5002260;28;20556;-69
2023/07/30 05:40:12;;;;;;;18.92;4.00;;;16.20;99.90;;;;;;5010570;28;20060;-70
2023/07/30 05:42:38;;;;;;;20.52;4.13;;;16.30;99.90;;;;;;5012612;28;20129;-69
2023/07/30 05:45:04;;;;;;;20.98;4.18;;;16.30;99.90;;;;;;5011691;28;20136;-70
2023/07/30 05:47:30;;;;;;;16.90;3.38;;;16.30;99.90;;;;;;5009970;28;20085;-70
2023/07/30 05:49:55;;;;;;;15.35;3.67;;;16.40;99.90;;;;;;5010677;28;20097;-69
2023/07/30 05:52:21;;;;;;;20.42;4.20;;;16.40;99.90;;;;;;5011074;28;20165;-70
2023/07/30 05:54:46;;;;;;;22.85;3.70;;;16.40;99.90;;;;;;5010014;28;20054;-69
2023/07/30 05:57:12;;;;;;;16.38;3.95;;;16.50;99.90;;;;;;5010850;28;20057;-69
2023/07/30 05:59:38;;;;;;;19.60;3.67;;;16.50;99.90;;;;;;5011141;28;20409;-68
2023/07/30 06:02:03;;;;;;;17.77;3.78;;;16.50;99.90;;;;;;5011070;28;20111;-69
2023/07/30 06:04:32;;;;;;;20.63;3.47;;;16.50;99.90;;;;;;5010521;28;20038;-70
2023/07/30 06:07:02;;;;;;;18.60;3.60;;;16.60;99.90;;;;;;5011418;28;20038;-69
2023/07/30 06:09:28;;;;;;;18.60;3.42;;;16.60;99.90;;;;;;5011182;28;20053;-68
2023/07/30 06:11:54;;;;;;;16.33;3.65;;;16.60;99.90;;;;;;5009986;28;20038;-69
2023/07/30 06:14:20;;;;;;;18.17;3.80;;;16.70;99.90;;;;;;5011323;28;20037;-69
2023/07/30 06:16:46;;;;;;;15.02;3.40;;;16.80;99.90;;;;;;5010587;28;20057;-70
2023/07/30 06:19:11;;;;;;;15.00;3.25;;;16.80;99.90;;;;;;5010819;28;20458;-70
2023/07/30 06:21:37;;;;;;;15.93;4.20;;;16.80;99.90;;;;;;5011032;28;20485;-70
2023/07/30 06:24:03;;;;;;;14.93;3.45;;;16.80;99.90;;;;;;5010141;28;20049;-69
2023/07/30 06:26:28;;;;;;;16.27;3.70;;;16.90;99.90;;;;;;5010034;28;20037;-70
2023/07/30 06:28:54;;;;;;;16.20;3.38;;;16.90;99.90;;;;;;5010808;28;20041;-69
2023/07/30 06:31:20;;;;;;;17.45;4.03;;;16.90;99.90;;;;;;5009676;28;20120;-70
2023/07/30 06:33:45;;;;;;;21.65;4.80;;;17.00;99.90;;;;;;5009984;28;20069;-70
2023/07/30 06:36:11;;;;;;;23.10;4.47;;;17.10;99.90;;;;;;5003933;28;20041;-69
2023/07/30 06:38:36;;;;;;;23.60;4.20;;;17.10;99.90;;;;;;5006024;28;20042;-70
2023/07/30 06:41:03;;;;;;;17.00;3.95;;;17.20;99.90;;;;;;5010430;28;20041;-69
2023/07/30 06:43:28;;;;;;;21.60;4.75;;;17.20;99.90;;;;;;5010350;28;20128;-70
2023/07/30 06:45:54;;;;;;;20.33;4.13;;;17.30;99.90;;;;;;5010620;28;20161;-69
2023/07/30 06:48:20;;;;;;;20.40;3.95;;;17.30;99.90;;;;;;5009475;28;20490;-70
2023/07/30 06:50:46;;;;;;;16.25;3.67;;;17.40;99.90;;;;;;5009918;28;20069;-70
2023/07/30 06:53:12;;;;;;;16.02;3.67;;;17.40;99.90;;;;;;5009632;28;20046;-70
2023/07/30 06:55:37;;;;;;;16.15;3.47;;;17.40;99.90;;;;;;4991532;28;20140;-69
2023/07/30 06:58:03;;;;;;;14.57;3.38;;;17.50;99.90;;;;;;5009171;28;20046;-70
2023/07/30 07:00:29;;;;;;;17.23;3.60;;;17.50;99.90;;;;;;5008882;28;20168;-70
2023/07/30 07:02:55;;;;;;;16.27;2.90;;;17.60;99.90;;;;;;5009257;28;20054;-69
2023/07/30 07:05:20;;;;;;;18.02;3.83;;;17.60;99.90;;;;;;5009397;28;20053;-70
2023/07/30 07:07:46;;;;;;;12.90;3.05;;;17.70;99.90;;;;;;5008551;28;20044;-70
2023/07/30 07:10:12;;;;;;;14.95;3.08;;;17.80;99.90;;;;;;5008933;28;20093;-70
2023/07/30 07:12:39;;;;;;;13.23;2.72;;;17.80;99.90;;;;;;5009742;28;20897;-70
2023/07/30 07:15:05;;;;;;;15.57;3.13;;;17.80;99.90;;;;;;5008970;28;20049;-69
2023/07/30 07:17:31;;;;;;;12.35;2.83;;;17.80;99.90;;;;;;5013901;28;20041;-70
2023/07/30 07:19:57;;;;;;;17.05;3.40;;;17.90;99.90;;;;;;4993527;28;20052;-70
2023/07/30 07:22:23;;;;;;;16.30;2.80;;;18.10;99.90;;;;;;5008989;28;20077;-70
2023/07/30 07:24:52;;;;;;;19.23;2.55;;;18.20;99.90;;;;;;5009091;28;20041;-70
2023/07/30 07:27:17;;;;;;;15.05;2.13;;;18.30;99.90;;;;;;5008752;28;20116;-72
2023/07/30 07:29:43;;;;;;;11.82;2.70;;;18.40;99.90;;;;;;5009507;28;20430;-71
2023/07/30 07:32:09;;;;;;;18.50;2.70;;;18.40;99.90;;;;;;4992327;28;20042;-71
2023/07/30 07:34:35;;;;;;;15.10;2.55;;;18.60;99.90;;;;;;5008971;28;20038;-70
2023/07/30 07:37:01;;;;;;;15.48;2.55;;;18.70;99.90;;;;;;5007272;28;20489;-69
2023/07/30 07:39:27;;;;;;;10.35;2.70;;;18.90;99.90;;;;;;5004231;28;20039;-70
2023/07/30 07:41:52;;;;;;;13.93;2.15;;;19.00;99.90;;;;;;5004575;28;20048;-74
2023/07/30 07:44:18;;;;;;;9.48;2.50;;;19.00;99.90;;;;;;4985775;28;20048;-71
2023/07/30 07:46:44;;;;;;;9.15;2.00;;;19.00;99.90;;;;;;4993526;28;20046;-70
2023/07/30 07:49:09;;;;;;;12.35;2.00;;;18.90;99.90;;;;;;5008995;28;20116;-71
2023/07/30 07:51:35;;;;;;;9.13;2.00;;;18.90;99.90;;;;;;5009055;28;20041;-69
2023/07/30 07:54:00;;;;;;;7.20;2.03;;;18.70;99.90;;;;;;5006299;28;20041;-69
2023/07/30 07:56:26;;;;;;;11.85;1.90;;;18.60;99.90;;;;;;5009530;28;20062;-69
2023/07/30 07:58:52;;;;;;;10.98;2.42;;;18.50;99.90;;;;;;5010317;28;20046;-69
2023/07/30 08:01:17;;;;;;;12.40;2.13;;;18.40;99.90;;;;;;5008384;28;20132;-68
2023/07/30 08:03:44;;;;;;;8.50;2.20;;;18.40;99.90;;;;;;5008507;28;20072;-69
2023/07/30 08:06:10;;;;;;;15.60;2.15;;;18.30;99.90;;;;;;4996340;28;20505;-70
2023/07/30 08:08:35;;;;;;;12.63;2.15;;;18.20;99.90;;;;;;5008754;28;20092;-70
2023/07/30 08:11:08;;;;;;;12.40;2.50;;;18.20;99.90;;;;;;5011241;28;20405;-70
2023/07/30 08:13:35;;;;;;;13.48;2.38;;;18.10;99.90;;;;;;5011604;28;20057;-70
2023/07/30 08:16:01;;;;;;;14.60;2.03;;;18.00;99.90;;;;;;5013302;28;20038;-70
2023/07/30 08:18:27;;;;;;;8.15;1.98;;;17.90;99.90;;;;;;5012204;28;20042;-69
2023/07/30 08:20:52;;;;;;;9.30;1.88;;;17.90;99.90;;;;;;5013010;28;20451;-69
2023/07/30 08:23:18;;;;;;;10.48;1.55;;;17.90;99.90;;;;;;5015965;28;20046;-69
2023/07/30 08:25:43;;;;;;;12.60;1.67;;;17.90;99.90;;;;;;5014194;28;20054;-69
2023/07/30 08:28:09;;;;;;;14.38;1.90;;;17.90;99.90;;;;;;5012580;28;20030;-70
2023/07/30 08:30:35;;;;;;;9.32;2.17;;;17.80;99.90;;;;;;5017016;28;20117;-70
2023/07/30 08:33:00;;;;;;;9.70;1.88;;;17.90;99.90;;;;;;5012696;28;20124;-70
2023/07/30 08:35:29;;;;;;;17.35;1.73;;;17.80;99.90;;;;;;5012322;28;20444;-70
2023/07/30 08:37:55;;;;;;;8.68;1.40;;;17.80;99.90;;;;;;5011922;28;20048;-70
2023/07/30 08:40:24;;;;;;;12.65;2.38;;;17.90;99.90;;;;;;5012478;28;20042;-69
2023/07/30 08:42:51;;;;;;;8.80;1.75;;;17.90;99.90;;;;;;5012242;28;20038;-71
2023/07/30 08:45:17;;;;;;;10.68;1.75;;;17.90;99.90;;;;;;5011866;28;20046;-70
2023/07/30 08:47:44;;;;;;;8.98;1.58;;;18.20;99.90;;;;;;5012860;28;20092;-69
2023/07/30 08:50:10;;;;;;;13.80;2.22;;;18.30;99.90;;;;;;5011727;28;20489;-71
2023/07/30 08:52:36;;;;;;;14.48;1.88;;;18.40;99.90;;;;;;5012782;28;20076;-69
2023/07/30 08:55:03;;;;;;;12.88;2.13;;;18.50;99.90;;;;;;5012455;28;20357;-68
2023/07/30 08:57:29;;;;;;;9.95;2.40;;;18.70;99.90;;;;;;5011733;28;20064;-69
2023/07/30 09:00:00;;;;;;;10.77;1.88;;;18.80;99.90;;;;;;5012215;28;20045;-69
2023/07/30 09:02:54;;;;;;;12.48;2.30;;;18.80;99.90;;;;;;5011400;28;20627;-70
2023/07/30 09:05:21;;;;;;;9.60;1.80;;;18.80;99.90;;;;;;5009279;28;20057;-69
2023/07/30 09:07:47;;;;;;;9.88;2.05;;;18.70;99.90;;;;;;5012090;28;20038;-70
2023/07/30 09:10:13;;;;;;;11.38;2.08;;;18.70;99.90;;;;;;5011422;28;20045;-69
2023/07/30 09:12:39;;;;;;;11.82;2.75;;;18.60;99.90;;;;;;5011120;28;20108;-70
2023/07/30 09:15:06;;;;;;;11.23;1.73;;;18.40;99.90;;;;;;5011976;28;20481;-70
2023/07/30 09:17:33;;;;;;;11.38;2.30;;;18.50;99.90;;;;;;5011275;28;20065;-70
2023/07/30 09:20:03;;;;;;;8.88;1.80;;;18.30;99.90;;;;;;5011543;28;20046;-70
2023/07/30 09:22:33;;;;;;;13.98;2.20;;;18.30;99.90;;;;;;5010099;28;20567;-70
2023/07/30 09:25:02;;;;;;;9.35;1.60;;;18.30;99.90;;;;;;5011337;28;20057;-71
2023/07/30 09:27:28;;;;;;;5.38;1.38;;;18.30;99.90;;;;;;5010535;28;20042;-69
2023/07/30 09:29:59;;;;;;;7.38;1.30;;;18.30;99.90;;;;;;5015843;28;20050;-70
2023/07/30 09:32:35;;;;;;;6.60;1.23;;;18.20;99.90;;;;;;5015697;28;20046;-69
2023/07/30 09:35:08;;;;;;;6.03;1.00;;;18.20;99.90;;;;;;5016472;28;20050;-68
2023/07/30 09:37:39;;;;;;;3.70;1.00;;;18.10;99.90;;;;;;5004730;28;20053;-69
2023/07/30 09:40:13;;;;;;;8.43;1.38;;;18.10;99.90;;;;;;5011945;28;20085;-69
2023/07/30 09:42:42;;;;;;;9.35;1.73;;;18.10;99.90;;;;;;5009725;28;20038;-69
2023/07/30 09:45:23;;;;;;;4.95;1.33;;;18.20;99.90;;;;;;5012214;28;20096;-69
2023/07/30 09:47:51;;;;;;;8.77;1.35;;;18.20;99.90;;;;;;5005287;28;20041;-69
2023/07/30 09:50:17;;;;;;;6.35;1.40;;;18.30;99.90;;;;;;4994669;28;20061;-69
2023/07/30 09:52:43;;;;;;;7.10;1.40;;;18.40;99.90;;;;;;5011847;28;20050;-70
2023/07/30 09:55:09;;;;;;;8.90;1.45;;;18.40;99.90;;;;;;5012307;28;20082;-69
2023/07/30 09:57:36;;;;;;;9.00;1.58;;;18.50;99.90;;;;;;5011932;28;20309;-69
2023/07/30 10:00:03;;;;;;;6.63;1.30;;;18.50;99.90;;;;;;5003136;28;20046;-69
2023/07/30 10:02:32;;;;;;;5.05;1.25;;;18.40;99.90;;;;;;5011889;28;20049;-70
2023/07/30 10:05:00;;;;;;;7.70;1.38;;;18.50;99.90;;;;;;5003806;28;20120;-70
2023/07/30 10:07:28;;;;;;;9.02;1.42;;;18.70;99.90;;;;;;5011704;28;20042;-70
2023/07/30 10:09:58;;;;;;;4.88;1.10;;;18.80;99.90;;;;;;5011551;28;20121;-71
2023/07/30 10:12:33;;;;;;;6.00;1.20;;;18.90;99.90;;;;;;5011192;28;20042;-69
2023/07/30 10:15:00;;;;;;;8.27;1.70;;;19.00;99.90;;;;;;5011111;28;20054;-69
2023/07/30 10:17:26;;;;;;;8.88;1.33;;;19.10;99.90;;;;;;5011589;28;20113;-70
2023/07/30 10:19:51;;;;;;;4.90;1.10;;;19.40;99.90;;;;;;5011401;28;20124;-69
2023/07/30 10:22:17;;;;;;;7.00;1.23;;;19.70;99.90;;;;;;5011372;28;20469;-70
2023/07/30 10:24:55;;;;;;;11.93;1.67;;;19.70;99.90;;;;;;5011427;28;20042;-70
2023/07/30 10:27:24;;;;;;;14.18;2.40;;;19.40;99.90;;;;;;5011335;28;20068;-70
2023/07/30 10:30:08;;;;;;;11.07;1.60;;;19.20;99.90;;;;;;5011181;28;20030;-71
2023/07/30 10:33:02;;;;;;;12.70;1.95;;;18.80;99.90;;;;;;5004023;28;20042;-71
2023/07/30 10:35:48;;;;;;;5.85;1.67;;;18.80;99.90;;;;;;4993422;28;20088;-71
2023/07/30 10:38:20;;;;;;;8.25;1.50;;;18.70;99.90;;;;;;5011206;28;20057;-69
2023/07/30 10:41:08;;;;;;;10.25;1.50;;;18.90;99.90;;;;;;5011257;28;20033;-70
2023/07/30 10:43:41;;;;;;;13.52;2.10;;;19.10;99.90;;;;;;5010946;28;20052;-70
2023/07/30 10:46:09;;;;;;;11.57;1.65;;;19.10;99.90;;;;;;5010927;28;20053;-69
2023/07/30 10:48:37;;;;;;;8.93;1.63;;;19.00;99.90;;;;;;5010489;28;20099;-70
2023/07/30 10:51:11;;;;;;;12.23;1.92;;;19.00;99.90;;;;;;5008659;28;20037;-70
2023/07/30 10:53:39;;;;;;;13.18;2.25;;;19.00;99.90;;;;;;5013130;28;20869;-70
2023/07/30 10:56:06;;;;;;;15.25;1.90;;;19.00;99.90;;;;;;5010902;28;20046;-72
2023/07/30 10:58:32;;;;;;;9.90;1.58;;;19.00;99.90;;;;;;5007144;28;20125;-70
2023/07/30 11:00:58;;;;;;;11.85;2.38;;;19.40;99.90;;;;;;5013452;28;20076;-69
2023/07/30 11:03:26;;;;;;;8.57;2.10;;;19.70;99.90;;;;;;5015298;28;20057;-68
2023/07/30 11:05:53;;;;;;;11.77;2.05;;;19.60;99.90;;;;;;5010319;28;20117;-71
2023/07/30 11:08:18;;;;;;;12.25;1.77;;;19.50;99.90;;;;;;5013624;28;20104;-70
2023/07/30 11:10:46;;;;;;;12.25;2.30;;;19.50;99.90;;;;;;5012321;28;20516;-69
2023/07/30 11:13:13;;;;;;;13.70;2.33;;;19.90;99.90;;;;;;4992059;28;20054;-71
2023/07/30 11:15:43;;;;;;;13.68;1.83;;;19.70;99.90;;;;;;5009333;28;20557;-70
2023/07/30 11:18:13;;;;;;;13.45;2.25;;;19.90;99.90;;;;;;5020645;28;20083;-70
2023/07/30 11:20:38;;;;;;;13.98;1.75;;;19.90;99.90;;;;;;5005607;28;20125;-69
2023/07/30 11:23:21;;;;;;;9.25;1.92;;;20.20;99.90;;;;;;5001603;28;20145;-69
2023/07/30 11:25:51;;;;;;;7.68;1.55;;;20.40;99.90;;;;;;5009305;28;20046;-69
2023/07/30 11:28:37;;;;;;;12.35;1.60;;;20.70;99.90;;;;;;5008863;28;20485;-69
2023/07/30 11:31:08;;;;;;;9.30;1.55;;;20.60;99.90;;;;;;5008419;28;20114;-69
2023/07/30 11:33:42;;;;;;;11.90;1.60;;;20.40;99.90;;;;;;5003169;28;20124;-70
2023/07/30 11:36:11;;;;;;;13.32;2.33;;;20.20;99.90;;;;;;5008775;28;20046;-70
2023/07/30 11:38:38;;;;;;;8.43;1.95;;;20.30;99.90;;;;;;5009069;28;20034;-69
2023/07/30 11:41:05;;;;;;;10.25;1.80;;;20.50;99.90;;;;;;5008887;28;20045;-70
2023/07/30 11:43:31;;;;;;;7.38;1.55;;;20.70;99.90;;;;;;5009285;28;20046;-70
2023/07/30 11:46:08;;;;;;;18.05;3.03;;;21.00;99.90;;;;;;5007944;28;20403;-71
2023/07/30 11:48:34;;;;;;;13.35;2.28;;;21.20;99.90;;;;;;5006789;28;20099;-71
2023/07/30 11:51:00;;;;;;;13.27;1.90;;;21.40;99.90;;;;;;5009237;28;20134;-70
2023/07/30 11:53:53;;;;;;;11.15;2.03;;;21.40;99.90;;;;;;5008571;28;20605;-70
2023/07/30 11:56:21;;;;;;;13.93;1.90;;;21.20;99.90;;;;;;5008332;28;20201;-71
2023/07/30 11:58:48;;;;;;;10.40;2.00;;;20.90;99.90;;;;;;4997282;28;20138;-70
2023/07/30 12:01:18;;;;;;;9.32;1.58;;;20.30;99.90;;;;;;5017164;28;20042;-69
2023/07/30 12:03:43;;;;;;;11.55;1.88;;;19.60;99.90;;;;;;5009996;28;20046;-68
2023/07/30 12:06:10;;;;;;;8.32;1.48;;;19.00;99.90;;;;;;5009938;28;20052;-69
2023/07/30 12:08:37;;;;;;;10.00;1.85;;;18.70;99.90;;;;;;5009118;28;20078;-69
2023/07/30 12:11:04;;;;;;;8.27;1.98;;;18.40;99.90;;;;;;5008896;28;20049;-70
2023/07/30 12:13:31;;;;;;;7.35;1.52;;;18.40;99.90;;;;;;5008334;28;20050;-69
2023/07/30 12:15:57;;;;;;;7.28;1.48;;;18.40;99.90;;;;;;5008213;28;20041;-70
2023/07/30 12:18:24;;;;;;;6.07;1.27;;;18.70;99.90;;;;;;5011753;28;20042;-70
2023/07/30 12:20:51;;;;;;;6.25;1.30;;;18.80;99.90;;;;;;5009847;28;20057;-70
2023/07/30 12:23:17;;;;;;;4.22;1.05;;;18.80;99.90;;;;;;5009747;28;20053;-70
2023/07/30 12:25:44;;;;;;;10.48;1.77;;;19.00;99.90;;;;;;5009796;28;20049;-70
2023/07/30 12:28:10;;;;;;;9.05;1.20;;;19.30;99.90;;;;;;5009409;28;20042;-70
2023/07/30 12:30:36;;;;;;;9.57;1.35;;;19.60;99.90;;;;;;5010006;28;20088;-70
2023/07/30 12:33:03;;;;;;;8.70;1.52;;;19.80;99.90;;;;;;5009400;28;20042;-69
2023/07/30 12:35:29;;;;;;;7.32;1.38;;;20.00;99.90;;;;;;5009251;28;20050;-71
2023/07/30 12:37:55;;;;;;;10.35;1.60;;;20.20;99.90;;;;;;5009848;28;20041;-70